Date,TemperatureHighF,TemperatureAvgF,TemperatureLowF,DewpointHighF,DewpointAvgF,DewpointLowF,HumidityHigh,HumidityAvg,HumidityLow,PressureMaxIn,PressureMinIn,WindSpeedMaxMPH,WindSpeedAvgMPH,GustSpeedMaxMPH,PrecipitationSumIn
2012-12-1,78.3,64.9,54.2,63.6,58.0,53.1,97,80,51,30.26,30.17,14,1,14,0.00
2012-12-2,80.6,68.3,59.5,65.0,60.3,54.7,97,78,42,30.29,30.18,13,1,13,0.00
2012-12-3,79.3,68.7,61.5,67.7,61.7,57.7,95,80,53,30.29,30.18,11,1,11,0.00
2012-12-4,79.6,67.0,56.9,61.6,57.1,51.7,97,74,39,30.30,30.18,12,1,12,0.00
2012-12-5,78.1,67.3,56.4,65.3,59.4,54.5,94,77,51,30.20,30.03,9,1,9,0.00
2012-12-6,80.2,68.5,61.7,66.1,62.3,60.5,96,82,56,30.06,29.93,11,1,11,0.00
2012-12-7,77.6,67.0,61.9,66.9,63.1,60.5,98,88,65,30.04,29.92,9,1,9,0.00
2012-12-8,81.9,70.6,63.4,69.7,66.1,61.8,99,87,61,30.06,29.97,9,1,9,0.00
2012-12-9,78.1,69.1,63.0,70.6,66.1,62.0,99,91,71,30.10,30.01,6,0,6,0.00
2012-12-10,80.7,70.2,59.4,74.0,67.4,58.8,99,91,76,30.03,29.85,14,2,14,0.08
2012-12-11,80.5,72.6,67.7,75.1,70.6,66.8,99,94,80,30.03,29.89,13,1,13,0.07
2012-12-12,81.5,72.8,67.9,73.5,70.2,67.3,99,92,73,30.08,29.98,12,1,12,0.03
2012-12-13,69.3,62.5,55.1,68.7,59.7,52.2,98,91,80,30.21,30.06,12,2,12,0.01
2012-12-14,64.5,57.7,54.1,59.2,55.4,52.3,96,92,80,30.25,30.12,11,1,12,0.01
2012-12-15,76.8,63.3,54.4,67.7,59.9,53.6,99,89,68,30.17,30.05,8,1,8,0.01
2012-12-16,60.7,60.6,60.5,59.6,59.5,59.3,96,96,95,30.07,30.06,0,0,1,0.00
2012-12-17,80.4,73.8,60.5,69.3,67.4,59.7,98,82,59,29.99,29.89,17,3,17,0.01
2012-12-18,79.2,68.6,52.9,72.5,63.7,50.6,99,85,66,30.05,29.89,14,2,14,0.01
2012-12-19,77.4,60.1,48.7,54.1,48.8,40.3,98,72,28,30.14,30.04,8,1,8,0.00
2012-12-20,81.9,68.2,52.1,70.3,62.7,49.4,98,84,60,30.09,29.93,17,4,17,0.05
2012-12-21,68.0,55.3,45.2,66.5,43.9,36.4,95,66,44,30.23,29.98,20,4,20,0.12
2012-12-22,61.4,48.4,38.1,40.1,32.5,15.3,91,59,17,30.33,30.22,14,1,14,0.01
2012-12-23,65.3,50.3,36.0,44.5,36.8,25.7,95,65,24,30.29,30.15,6,0,6,0.00
2012-12-24,67.6,58.5,49.0,58.6,51.4,40.9,93,78,62,30.16,29.98,12,1,12,0.00
2012-12-25,74.9,64.4,53.8,63.0,58.4,52.7,97,82,62,30.03,29.88,14,2,14,0.00
2012-12-26,77.3,65.0,50.8,70.7,60.1,47.9,95,84,69,30.02,29.82,26,4,26,0.00
2012-12-27,61.7,50.0,40.6,48.2,43.9,37.6,96,81,52,30.14,30.02,9,1,9,0.01
2012-12-28,70.5,56.3,41.3,65.1,51.3,40.3,98,85,52,30.12,29.92,8,1,8,0.01
2012-12-29,73.3,65.6,51.8,70.8,62.0,45.5,98,89,69,30.19,29.87,18,4,18,0.02
2012-12-30,56.5,47.1,40.0,45.4,38.4,34.3,91,73,48,30.39,30.19,18,2,18,0.04
2012-12-31,73.6,56.3,42.4,58.4,50.0,40.5,95,81,55,30.37,30.20,13,1,13,0.04